MDT,Max TemperatureF,Mean TemperatureF,Min TemperatureF,Max Dew PointF,MeanDew PointF,Min DewpointF,Max Humidity, Mean Humidity, Min Humidity, Max Sea Level PressureIn, Mean Sea Level PressureIn, Min Sea Level PressureIn, Max VisibilityMiles, Mean VisibilityMiles, Min VisibilityMiles, Max Wind SpeedMPH, Mean Wind SpeedMPH, Max Gust SpeedMPH,PrecipitationIn, CloudCover, Events, WindDirDegrees
2013-8-1,85,68,51,47,44,39,67,45,22,30.05,29.84,29.66,10,8,2,26,5,32,T,2,Rain-Thunderstorm,339
2013-8-2,81,62,43,44,33,19,83,47,10,30.02,29.91,29.84,10,9,2,17,5,23,0.00,0,,342
2013-8-3,86,66,46,39,28,15,59,34,8,30.13,29.96,29.86,10,10,6,20,6,28,0.00,0,,300
2013-8-4,90,69,47,36,29,20,46,27,8,30.21,29.95,29.83,10,9,4,22,3,30,0.00,0,,292
2013-8-5,93,71,49,41,28,18,50,29,7,29.97,29.87,29.76,10,10,8,25,6,36,0.00,0,,277
2013-8-6,89,70,51,40,32,23,54,32,9,30.13,29.88,29.80,10,10,5,12,5,15,0.00,0,,9
2013-8-7,89,69,49,38,30,22,46,28,9,29.96,29.87,29.75,10,9,5,10,3,16,0.00,0,,29
2013-8-8,85,69,52,45,33,21,46,28,10,30.04,29.88,29.79,10,8,2,24,5,32,0.00,1,,346
2013-8-9,83,69,54,46,41,36,57,39,21,30.03,29.89,29.81,10,9,4,30,6,37,0.06,1,Rain-Thunderstorm,343
2013-8-10,91,70,49,42,33,19,66,37,8,30.14,29.93,29.79,10,9,6,21,5,24,0.00,2,,172
2013-8-11,80,64,48,41,34,27,47,34,20,30.09,29.98,29.90,10,8,3,20,3,24,0.00,1,Thunderstorm,312
2013-8-12,85,65,45,40,35,27,65,39,12,30.04,29.97,29.91,10,8,5,22,5,30,0.00,0,,320
2013-8-13,81,64,47,43,36,32,61,41,20,30.12,30.03,29.96,10,10,9,12,2,15,0.00,0,,345
2013-8-14,89,68,47,43,33,21,56,34,11,30.09,29.97,29.84,10,9,5,13,2,14,0.00,1,,47
2013-8-15,92,70,47,37,29,19,50,29,8,30.01,29.91,29.83,10,7,4,14,3,17,0.00,1,,126
2013-8-16,97,74,50,37,24,13,38,22,5,30.15,29.92,29.79,10,6,3,21,5,32,0.00,2,,287
2013-8-17,93,72,51,35,27,21,44,26,8,30.06,29.90,29.81,10,10,7,25,5,32,0.00,1,,265
2013-8-18,94,72,49,36,28,19,41,24,7,30.06,29.92,29.84,10,10,9,20,5,26,0.00,0,,308
2013-8-19,95,72,49,41,29,21,46,27,7,30.02,29.92,29.81,10,10,10,20,5,24,0.00,0,,296
2013-8-20,94,72,50,37,29,22,54,31,7,29.96,29.87,29.76,10,10,10,16,4,21,0.00,0,,325
2013-8-21,91,71,51,42,33,22,49,29,8,30.00,29.90,29.81,10,10,10,9,3,14,0.00,0,,95
2013-8-22,88,74,59,51,44,37,60,39,17,30.04,29.90,29.79,10,10,7,23,4,28,0.03,2,Rain-Thunderstorm,346
2013-8-23,87,70,52,51,42,30,77,47,16,30.05,29.81,29.67,10,8,4,23,4,28,0.01,2,Rain-Thunderstorm,30
2013-8-24,79,65,50,47,39,28,62,47,31,30.12,29.89,29.75,10,9,5,30,3,41,0.02,3,Rain-Thunderstorm,342
2013-8-25,84,64,44,55,43,32,89,53,16,30.04,29.94,29.79,10,10,8,29,6,39,0.09,2,Rain-Thunderstorm,169
2013-8-26,86,67,47,46,39,27,71,43,14,29.99,29.90,29.81,10,10,8,21,5,26,0.00,1,,183
2013-8-27,87,69,50,45,40,36,59,38,16,29.98,29.88,29.79,10,10,9,20,3,28,T,0,Rain,137
2013-8-28,84,69,54,55,47,40,62,45,28,30.14,29.93,29.84,10,10,9,16,2,21,0.02,3,Rain-Thunderstorm,357
2013-8-29,90,70,50,49,44,34,83,50,17,30.06,29.97,29.86,10,10,10,18,4,25,T,1,Rain,192
2013-8-30,90,70,50,45,32,16,59,33,7,30.04,29.96,29.88,10,10,6,26,5,33,0.00,0,,249
2013-8-31,90,68,45,40,30,25,46,28,9,30.09,29.97,29.86,10,10,10,12,2,14,0.00,0,,11